Latest Weather Observations for Bairnsdale

IDV60801

Issued at 8:03 am EDT Monday 20 November 2017 (issued every 30 minutes, with the page automatically refreshed every 10 minutes)

About weather observations | Map of weather stations | Latest weather observations for VIC | Other Formats
Station Details ID: 085279 Name: BAIRNSDALE AIRPORT Lat: -37.88 Lon: 147.57 Height: 49.4 m
Data from the previous 72 hours. | See also: Recent months at Bairnsdale
Date/Time
EDT
Temp
°C
App
Temp
°C
Dew
Point
°C
Rel
Hum
%
Delta-T
°C
Wind Press
QNH
hPa
Press
MSL
hPa
Rain since
9am
mm
Dir  Spd
km/h
Gust
km/h
Spd
kts
Gust
kts
20/08:00am 19.3 19.3 13.7 70 3.2 ESE 6 7 3 4 1023.4 1023.4 0.0
20/07:30am 17.1 18.2 13.6 80 2.0 CALM 0 0 0 0 1023.0 1023.0 0.0
20/07:00am 15.4 15.4 13.6 89 1.0 NNE 6 9 3 5 1022.6 1022.6 0.0
20/06:30am 14.2 13.2 13.4 95 0.4 NE 11 13 6 7 1022.4 1022.4 0.0
20/06:00am 13.4 12.2 12.8 96 0.3 NE 11 13 6 7 1022.2 1022.2 0.0
20/05:30am 12.8 12.3 12.2 96 0.3 ENE 6 9 3 5 1022.0 1022.0 0.0
20/05:00am 13.6 13.4 13.1 97 0.3 NE 6 9 3 5 1021.6 1021.6 0.0
20/04:43am 13.6 14.6 13.1 97 0.3 CALM 0 0 0 0 1021.5 1021.5 0.0
20/04:30am 13.2 13.7 12.7 97 0.3 NW 2 6 1 3 1021.5 1021.5 0.0
20/04:00am 13.0 12.6 12.4 96 0.3 NW 6 7 3 4 1021.5 1021.5 0.0
20/03:30am 12.8 12.1 12.0 95 0.4 NW 7 7 4 4 1021.3 1021.3 0.0
20/03:02am 13.0 12.5 12.2 95 0.4 NNW 6 9 3 5 1021.2 1021.2 0.0
20/03:00am 13.3 12.9 12.5 95 0.4 NNW 6 9 3 5 1021.2 1021.2 0.0
20/02:55am 13.3 12.9 12.5 95 0.4 N 6 7 3 4 1021.3 1021.3 0.0
20/02:30am 13.1 12.6 12.2 94 0.5 N 6 7 3 4 1021.2 1021.2 0.0
20/02:00am 14.4 14.4 13.6 95 0.4 NNW 6 7 3 4 1021.3 1021.3 0.0
20/01:30am 14.4 14.1 13.4 94 0.6 WNW 7 9 4 5 1021.4 1021.4 0.0
20/01:00am 13.9 13.1 13.0 94 0.5 NW 9 13 5 7 1021.4 1021.4 0.0
20/12:30am 14.2 13.8 13.1 93 0.6 WNW 7 9 4 5 1021.4 1021.4 0.0
20/12:00am 14.4 13.4 13.3 93 0.6 WNW 11 15 6 8 1021.3 1021.3 0.0
 
Date/Time
EDT
Temp
°C
App
Temp
°C
Dew
Point
°C
Rel
Hum
%
Delta-T
°C
Wind Press
QNH
hPa
Press
MSL
hPa
Rain since
9am
mm
Dir  Spd
km/h
Gust
km/h
Spd
kts
Gust
kts
19/11:30pm 14.5 14.1 13.0 91 0.8 NW 7 11 4 6 1021.3 1021.3 0.0
19/11:00pm 14.6 13.8 13.0 90 0.9 W 9 9 5 5 1021.2 1021.2 0.0
19/10:30pm 15.2 14.1 13.2 88 1.1 WSW 11 13 6 7 1021.1 1021.1 0.0
19/10:00pm 16.6 15.8 13.9 84 1.5 SSW 11 13 6 7 1020.8 1020.8 0.0
19/09:30pm 16.8 16.1 13.1 79 2.1 SSE 9 11 5 6 1020.6 1020.6 0.0
19/09:00pm 16.7 15.8 12.7 77 2.2 S 9 11 5 6 1020.5 1020.5 0.0
19/08:30pm 19.6 18.8 14.0 70 3.2 SSE 11 15 6 8 1020.4 1020.4 0.0
19/08:00pm 21.2 20.4 14.1 64 4.1 SSE 11 15 6 8 1020.3 1020.3 0.0
19/07:30pm 23.2 22.0 13.9 56 5.4 ESE 13 17 7 9 1020.0 1020.0 0.0
19/07:00pm 24.8 23.1 13.7 50 6.5 ESE 15 20 8 11 1020.0 1020.0 0.0
19/06:30pm 24.9 22.5 13.8 50 6.5 SE 19 24 10 13 1019.7 1019.7 0.0
19/06:00pm 25.7 22.3 12.5 44 7.6 ESE 22 30 12 16 1019.6 1019.6 0.0
19/05:30pm 26.7 23.3 11.2 38 8.8 ESE 20 32 11 17 1019.5 1019.5 0.0
19/05:00pm 26.5 23.1 11.4 39 8.6 ESE 20 32 11 17 1019.5 1019.5 0.0
19/04:30pm 26.2 23.0 11.2 39 8.5 ESE 19 28 10 15 1019.5 1019.5 0.0
19/04:00pm 25.3 22.3 12.5 45 7.4 ESE 20 26 11 14 1019.7 1019.7 0.0
19/03:30pm 25.1 21.8 12.7 46 7.2 ESE 22 26 12 14 1020.1 1020.1 0.0
19/03:00pm 25.0 22.0 12.6 46 7.1 SE 20 32 11 17 1020.2 1020.2 0.0
19/02:30pm 24.8 20.9 13.4 49 6.7 ESE 26 33 14 18 1020.3 1020.3 0.0
19/02:00pm 25.5 22.2 14.0 49 6.8 SE 24 35 13 19 1020.5 1020.5 0.0
19/01:30pm 25.3 22.0 14.1 50 6.6 ESE 24 33 13 18 1020.7 1020.7 0.0
19/01:00pm 25.3 22.6 14.7 51 6.3 SE 22 32 12 17 1020.9 1020.9 0.0
19/12:30pm 26.1 25.6 14.9 50 6.7 S 11 20 6 11 1020.9 1020.9 0.0
19/12:00pm 25.7 25.8 15.4 53 6.2 SSE 9 17 5 9 1021.1 1021.1 0.0
19/11:30am 24.5 23.6 14.9 55 5.7 SSW 13 20 7 11 1021.3 1021.3 0.0
19/11:00am 25.0 24.5 14.8 53 6.1 NW 11 19 6 10 1021.1 1021.1 0.0
19/10:30am 23.7 24.3 15.2 59 5.1 W 6 9 3 5 1021.0 1021.0 0.0
19/10:00am 22.2 22.2 15.1 64 4.2 WNW 9 15 5 8 1021.1 1021.1 0.0
19/09:30am 21.0 21.0 15.3 70 3.4 W 9 13 5 7 1021.1 1021.1 0.0
19/09:00am 18.8 18.8 15.3 80 2.1 WNW 9 11 5 6 1021.1 1021.1 0.0
19/08:30am 17.5 17.7 14.8 84 1.6 NNW 7 7 4 4 1020.9 1020.9 0.0
19/08:00am 16.4 16.6 14.6 89 1.0 NNW 7 9 4 5 1020.5 1020.5 0.0
19/07:30am 16.0 16.4 14.7 92 0.7 N 6 9 3 5 1020.1 1020.1 0.0
19/07:00am 15.0 16.2 13.9 93 0.6 CALM 0 0 0 0 1019.8 1019.8 0.0
19/06:30am 13.5 14.3 12.4 93 0.6 CALM 0 0 0 0 1019.5 1019.5 0.0
19/06:00am 12.5 12.1 11.2 92 0.7 W 4 6 2 3 1019.4 1019.4 0.0
19/05:30am 12.8 12.1 11.5 92 0.7 WNW 6 7 3 4 1019.3 1019.2 0.0
19/05:00am 12.7 11.9 10.9 89 0.9 E 6 7 3 4 1018.9 1018.8 0.0
19/04:30am 13.0 13.4 11.4 90 0.8 CALM 0 6 0 3 1018.7 1018.6 0.0
19/04:00am 13.7 14.3 11.8 88 1.0 CALM 0 0 0 0 1018.6 1018.5 0.0
19/03:30am 13.6 14.1 11.5 87 1.1 CALM 0 0 0 0 1018.6 1018.5 0.0
19/03:00am 16.0 15.5 12.0 77 2.2 NE 6 9 3 5 1018.5 1018.4 0.0
19/02:30am 15.9 15.4 12.1 78 2.1 NNE 6 7 3 4 1018.5 1018.4 0.0
19/02:00am 15.8 15.3 12.2 79 2.0 NNE 6 7 3 4 1018.5 1018.4 0.0
19/01:30am 18.4 16.5 11.7 65 3.7 ENE 13 15 7 8 1018.4 1018.3 0.0
19/01:00am 18.7 16.7 12.7 68 3.4 ENE 15 19 8 10 1018.5 1018.4 0.0
19/12:30am 18.1 17.0 13.0 72 2.9 NE 11 15 6 8 1018.5 1018.4 0.0
19/12:00am 19.5 17.7 13.4 68 3.5 ENE 15 19 8 10 1018.3 1018.2 0.0
 
Date/Time
EDT
Temp
°C
App
Temp
°C
Dew
Point
°C
Rel
Hum
%
Delta-T
°C
Wind Press
QNH
hPa
Press
MSL
hPa
Rain since
9am
mm
Dir  Spd
km/h
Gust
km/h
Spd
kts
Gust
kts
18/11:30pm 20.0 18.0 13.9 68 3.5 E 17 20 9 11 1018.1 1018.0 0.0
18/11:00pm 20.5 18.1 12.7 61 4.4 ENE 17 20 9 11 1018.1 1018.0 0.0
18/10:30pm 20.8 18.5 13.0 61 4.4 ENE 17 20 9 11 1017.8 1017.7 0.0
18/10:00pm 21.0 18.7 14.2 65 4.0 E 19 24 10 13 1017.6 1017.5 0.0
18/09:30pm 21.0 19.0 13.9 64 4.1 E 17 20 9 11 1017.3 1017.2 0.0
18/09:00pm 21.8 19.2 13.9 61 4.6 E 20 28 11 15 1016.9 1016.8 0.0
18/08:30pm 20.1 19.4 14.2 69 3.4 ESE 11 15 6 8 1016.9 1016.8 0.0
18/08:00pm 20.8 18.8 14.0 65 3.9 ESE 17 20 9 11 1016.6 1016.5 0.0
18/07:30pm 22.7 20.1 13.7 56 5.2 ESE 20 28 11 15 1016.4 1016.3 0.0
18/07:00pm 23.4 20.4 13.6 54 5.7 ESE 22 32 12 17 1016.1 1016.0 0.0
18/06:30pm 24.6 22.1 14.1 52 6.2 ESE 20 30 11 16 1015.8 1015.7 0.0
18/06:00pm 23.6 21.0 14.9 58 5.2 ESE 22 28 12 15 1015.7 1015.6 0.0
18/05:30pm 25.9 22.3 14.1 48 7.0 ESE 26 33 14 18 1015.7 1015.6 0.0
18/05:00pm 27.0 23.5 14.4 46 7.6 E 26 35 14 19 1015.6 1015.5 0.0
18/04:30pm 27.4 22.8 13.4 42 8.3 E 30 39 16 21 1015.6 1015.5 0.0
18/04:00pm 27.7 23.7 14.0 43 8.2 ESE 28 37 15 20 1015.9 1015.8 0.0
18/03:30pm 26.1 22.9 14.2 48 7.1 ESE 24 30 13 16 1016.1 1016.0 0.0
18/03:00pm 27.4 24.0 14.8 46 7.6 ESE 26 33 14 18 1016.2 1016.1 0.0
18/02:30pm 27.6 24.8 14.3 44 8.0 ESE 22 32 12 17 1016.4 1016.3 0.0
18/02:00pm 26.8 24.6 14.5 46 7.4 SE 19 24 10 13 1016.7 1016.6 0.0
18/01:30pm 25.7 24.4 15.7 54 6.1 SE 17 22 9 12 1017.0 1016.9 0.0
18/01:00pm 25.0 22.8 14.8 53 6.1 SE 20 24 11 13 1017.2 1017.1 0.0
18/12:30pm 26.6 25.9 15.3 50 6.9 ESE 13 20 7 11 1017.5 1017.4 0.0
18/12:00pm 25.9 24.4 13.1 45 7.5 E 13 19 7 10 1017.5 1017.4 0.0
18/11:30am 25.2 23.5 12.4 45 7.4 E 13 24 7 13 1017.8 1017.7 0.0
18/11:00am 23.9 22.8 13.2 51 6.2 NE 11 17 6 9 1018.0 1017.9 0.0
18/10:30am 22.7 22.7 13.7 56 5.2 NNE 6 9 3 5 1018.3 1018.2 0.0
18/10:00am 21.3 21.6 13.5 61 4.5 E 4 9 2 5 1018.3 1018.2 0.0
18/09:30am 20.1 19.9 13.1 64 4.0 NNE 6 9 3 5 1018.3 1018.2 0.0
18/09:00am 18.9 18.5 14.2 74 2.7 WNW 9 11 5 6 1018.2 1018.1 8.0
18/08:30am 17.8 17.6 13.7 77 2.3 NW 7 11 4 6 1018.1 1018.0 8.0
18/08:00am 16.5 17.0 14.0 85 1.4 NW 4 6 2 3 1017.9 1017.8 8.0
18/07:30am 15.5 15.4 13.3 87 1.2 NNW 6 7 3 4 1017.7 1017.6 8.0
18/07:00am 15.4 14.9 12.7 84 1.5 N 7 9 4 5 1017.2 1017.1 8.0
18/06:30am 14.6 13.7 12.5 87 1.1 NNW 9 11 5 6 1016.9 1016.8 8.0
18/06:00am 15.3 14.0 11.3 77 2.1 ENE 9 11 5 6 1016.4 1016.3 8.0
18/05:30am 16.4 14.5 11.8 74 2.5 ENE 13 17 7 9 1015.8 1015.7 8.0
18/05:00am 14.7 13.1 11.7 82 1.6 ENE 11 13 6 7 1015.5 1015.4 8.0
18/04:30am 12.4 11.5 10.6 89 0.9 ESE 6 9 3 5 1015.5 1015.4 8.0
18/04:00am 13.2 12.1 9.8 80 1.7 E 6 9 3 5 1015.3 1015.2 8.0
18/03:30am 15.3 14.1 11.5 78 2.0 ENE 9 11 5 6 1015.2 1015.1 8.0
18/03:00am 15.8 13.8 11.6 76 2.3 E 13 15 7 8 1015.1 1015.0 8.0
18/02:30am 15.8 14.6 11.6 76 2.3 E 9 13 5 7 1014.7 1014.6 8.0
18/02:00am 16.4 14.6 12.2 76 2.3 ENE 13 17 7 9 1014.9 1014.8 8.0
18/01:30am 16.5 15.3 12.7 78 2.1 NE 11 13 6 7 1014.9 1014.8 8.0
18/01:00am 17.3 15.8 13.2 77 2.3 ENE 13 17 7 9 1015.0 1014.9 8.0
18/12:30am 17.2 15.4 13.3 78 2.2 E 15 19 8 10 1014.9 1014.8 8.0
18/12:00am 17.7 16.8 13.6 77 2.3 ENE 11 15 6 8 1014.8 1014.7 8.0
 
Date/Time
EDT
Temp
°C
App
Temp
°C
Dew
Point
°C
Rel
Hum
%
Delta-T
°C
Wind Press
QNH
hPa
Press
MSL
hPa
Rain since
9am
mm
Dir  Spd
km/h
Gust
km/h
Spd
kts
Gust
kts
17/11:30pm 17.0 16.8 13.5 80 2.0 E 7 11 4 6 1014.6 1014.5 8.0
17/11:00pm 17.9 17.5 14.2 79 2.1 E 9 11 5 6 1014.9 1014.8 8.0
17/10:30pm 17.7 17.2 15.0 84 1.6 N 11 13 6 7 1015.1 1015.0 8.0
17/10:00pm 17.8 17.5 14.5 81 1.9 ENE 9 13 5 7 1014.9 1014.8 8.0
17/09:30pm 18.1 17.2 14.8 81 1.9 ESE 13 15 7 8 1014.3 1014.2 8.0
17/09:00pm 17.9 17.9 15.3 85 1.5 ESE 9 11 5 6 1014.3 1014.2 8.0
17/08:30pm 16.6 16.8 14.6 88 1.1 SSW 7 9 4 5 1013.9 1013.8 8.0
17/08:00pm 18.2 19.6 14.5 79 2.1 CALM 0 6 0 3 1014.1 1014.0 8.0
17/07:30pm 19.9 20.1 14.7 72 3.0 ENE 7 11 4 6 1014.1 1014.0 8.0
17/07:00pm 20.8 21.3 15.6 72 3.1 ESE 7 11 4 6 1014.1 1014.0 8.0
17/06:30pm 21.4 20.8 14.6 65 4.0 ENE 11 13 6 7 1013.7 1013.6 8.0
17/06:00pm 21.3 21.5 14.7 66 3.9 ENE 7 11 4 6 1013.5 1013.4 8.0
17/05:30pm 20.2 19.0 16.0 77 2.5 SSE 17 24 9 13 1012.9 1012.8 8.0
17/05:00pm 20.0 21.1 15.6 76 2.6 SE 4 7 2 4 1014.3 1014.2 8.0
17/04:30pm 18.9 18.3 16.7 87 1.3 SSE 15 20 8 11 1013.8 1013.7 8.0
17/04:28pm 19.1 18.7 17.2 89 1.2 SSE 15 20 8 11 1013.8 1013.7 8.0
17/04:00pm 19.6 20.0 16.3 81 2.0 W 9 15 5 8 1014.7 1014.6 3.8
17/03:53pm 20.1 20.7 15.9 77 2.5 NW 7 15 4 8 1014.4 1014.3 1.2
17/03:30pm 22.5 20.9 15.1 63 4.4 ESE 17 28 9 15 1013.4 1013.3 0.0
17/03:00pm 24.3 22.4 15.8 59 5.2 ESE 20 30 11 16 1012.4 1012.3 0.0
17/02:30pm 24.2 20.8 15.9 59 5.0 ESE 28 35 15 19 1012.9 1012.8 0.0
17/02:00pm 22.0 20.9 14.4 62 4.5 ESE 13 19 7 10 1014.3 1014.2 0.0
17/01:30pm 22.9 19.7 14.2 58 5.1 ESE 24 33 13 18 1014.1 1014.0 0.0
17/01:00pm 23.8 20.6 15.3 59 5.1 E 26 35 14 19 1013.5 1013.4 0.0
17/12:30pm 25.7 23.6 16.3 56 5.8 ESE 22 30 12 16 1013.6 1013.5 0.0
17/12:00pm 24.3 23.3 16.6 62 4.7 ESE 17 22 9 12 1014.3 1014.2 0.0
17/11:30am 23.2 21.1 14.7 58 5.0 E 19 26 10 14 1014.7 1014.6 0.0
17/11:00am 22.9 21.4 15.2 62 4.6 ENE 17 26 9 14 1015.0 1014.9 0.0
17/10:30am 21.7 20.6 15.3 67 3.8 ENE 15 22 8 12 1015.2 1015.1 0.0
17/10:00am 19.9 19.1 15.1 74 2.8 ENE 13 19 7 10 1015.3 1015.2 0.0
17/09:30am 19.3 18.8 14.8 75 2.6 NE 11 15 6 8 1015.3 1015.2 0.0
17/09:00am 19.0 18.8 15.7 81 2.0 NE 11 15 6 8 1015.1 1015.0 3.4
17/08:30am 18.1 17.8 15.4 84 1.6 NE 11 15 6 8 1015.1 1015.0 3.4

Other Formats:

Comma delimited format used in spreadsheet applications
http://www.bom.gov.au/fwo/IDV60801/IDV60801.94912.axf

JavaScript Object Notation format (JSON) in row-major order
http://www.bom.gov.au/fwo/IDV60801/IDV60801.94912.json